Time;durP1;ratioP1;P1;durP2;ratioP2;P2;SDS_P1;SDS_P2;PMS_P1;PMS_P2;Temp;Humidity;BMP_temperature;BMP_pressure;BME280_temperature;BME280_humidity;BME280_pressure;Samples;Min_cycle;Max_cycle;Signal;HPM_P1;HPM_P2
2023/03/09 00:01:51;;;;;;;24.52;15.43;;;1.20;99.90;;;;;;5052175;28;20068;-57
2023/03/09 00:04:17;;;;;;;23.73;15.20;;;;;;;;;;5053262;28;20041;-58
2023/03/09 00:06:44;;;;;;;23.95;15.65;;;1.40;99.90;;;;;;5051924;28;20480;-57
2023/03/09 00:09:10;;;;;;;23.50;14.63;;;;;;;;;;5053721;28;20040;-57
2023/03/09 00:11:43;;;;;;;22.65;14.68;;;1.40;99.90;;;;;;5053336;28;20052;-57
2023/03/09 00:14:09;;;;;;;24.60;14.63;;;;;;;;;;5054989;28;20149;-57
2023/03/09 00:16:38;;;;;;;24.80;14.98;;;1.50;99.90;;;;;;5052662;28;20520;-57
2023/03/09 00:19:04;;;;;;;22.95;14.27;;;;;;;;;;5052095;28;20059;-57
2023/03/09 00:21:34;;;;;;;22.20;11.38;;;;;;;;;;5053216;28;20127;-56
2023/03/09 00:24:24;;;;;;;22.52;13.18;;;1.50;99.90;;;;;;5051759;28;20045;-57
2023/03/09 00:26:58;;;;;;;20.10;12.95;;;1.50;99.90;;;;;;5054202;28;20088;-57
2023/03/09 00:29:26;;;;;;;22.83;14.25;;;1.40;99.90;;;;;;5055414;28;20045;-57
2023/03/09 00:31:53;;;;;;;22.02;12.85;;;;;;;;;;5055449;28;20057;-57
2023/03/09 00:34:20;;;;;;;21.95;12.00;;;1.50;99.90;;;;;;5056898;28;20040;-57
2023/03/09 00:36:47;;;;;;;23.00;14.15;;;;;;;;;;5057297;28;20040;-56
2023/03/09 00:39:14;;;;;;;23.95;12.13;;;1.20;99.90;;;;;;5055343;28;20789;-57
2023/03/09 00:41:40;;;;;;;16.92;10.32;;;;;;;;;;5055782;28;20125;-57
2023/03/09 00:44:07;;;;;;;22.92;12.95;;;;;;;;;;5057333;28;20067;-57
2023/03/09 00:46:34;;;;;;;19.35;12.18;;;1.30;99.90;;;;;;5057132;28;20044;-57
2023/03/09 00:49:02;;;;;;;18.10;10.45;;;;;;;;;;5055997;28;20036;-57
2023/03/09 00:51:28;;;;;;;18.75;11.07;;;;;;;;;;5056445;28;20048;-57
2023/03/09 00:53:55;;;;;;;17.70;10.82;;;1.20;99.90;;;;;;5056622;28;20313;-57
2023/03/09 00:56:27;;;;;;;18.15;11.50;;;1.40;99.90;;;;;;5056326;28;20056;-57
2023/03/09 00:58:54;;;;;;;18.90;11.32;;;;;;;;;;5055346;28;21142;-57
2023/03/09 01:01:20;;;;;;;18.33;11.43;;;1.20;99.90;;;;;;5056293;28;20041;-57
2023/03/09 01:03:46;;;;;;;20.02;12.45;;;1.00;99.90;;;;;;5055512;28;20040;-57
2023/03/09 01:06:13;;;;;;;18.52;11.32;;;;;;;;;;5053664;28;20053;-57
2023/03/09 01:08:39;;;;;;;20.13;11.70;;;;;;;;;;5055672;28;20063;-57
2023/03/09 01:11:07;;;;;;;19.52;11.38;;;0.90;99.90;;;;;;5057532;28;20386;-57
2023/03/09 01:13:33;;;;;;;16.52;10.77;;;;;;;;;;5056237;28;20032;-57
2023/03/09 01:15:59;;;;;;;19.27;10.98;;;;;;;;;;5056164;28;20082;-57
2023/03/09 01:18:26;;;;;;;16.92;10.50;;;;;;;;;;5054688;28;20036;-57
2023/03/09 01:20:52;;;;;;;20.80;11.25;;;;;;;;;;5055779;28;20079;-57
2023/03/09 01:23:18;;;;;;;16.90;11.43;;;;;;;;;;5056163;28;20032;-57
2023/03/09 01:25:44;;;;;;;17.33;10.63;;;;;;;;;;5055942;28;20036;-57
2023/03/09 01:28:10;;;;;;;18.30;11.20;;;;;;;;;;5055336;28;20490;-57
2023/03/09 01:30:37;;;;;;;17.90;11.18;;;;;;;;;;5054993;28;20082;-58
2023/03/09 01:33:03;;;;;;;15.93;9.82;;;;;;;;;;5055314;28;20127;-57
2023/03/09 01:35:29;;;;;;;16.60;10.00;;;;;;;;;;5055099;28;20044;-57
2023/03/09 01:37:55;;;;;;;15.57;10.20;;;;;;;;;;5054375;28;20288;-57
2023/03/09 01:40:24;;;;;;;17.17;10.23;;;0.80;99.90;;;;;;5056028;28;20098;-57
2023/03/09 01:42:57;;;;;;;17.70;10.00;;;;;;;;;;5055689;28;20045;-57
2023/03/09 01:45:23;;;;;;;16.88;11.07;;;;;;;;;;5069758;28;20431;-57
2023/03/09 01:47:49;;;;;;;17.15;10.02;;;;;;;;;;5055705;28;20147;-57
2023/03/09 01:50:17;;;;;;;15.75;9.30;;;;;;;;;;5055204;28;20052;-57
2023/03/09 01:52:46;;;;;;;19.52;11.23;;;0.60;99.90;;;;;;5054376;28;20401;-57
2023/03/09 01:55:18;;;;;;;20.88;11.55;;;0.60;99.90;;;;;;5054390;28;20106;-58
2023/03/09 01:57:52;;;;;;;18.10;11.45;;;0.70;99.90;;;;;;5055212;28;20036;-57
2023/03/09 02:00:21;;;;;;;17.77;10.38;;;0.60;99.90;;;;;;5054581;28;20059;-57
2023/03/09 02:02:51;;;;;;;20.92;11.30;;;;;;;;;;5055907;28;20040;-57
2023/03/09 02:05:23;;;;;;;19.15;11.30;;;0.50;99.90;;;;;;5054074;28;20064;-57
2023/03/09 02:07:50;;;;;;;17.13;11.05;;;0.40;99.90;;;;;;5054287;28;20356;-57
2023/03/09 02:10:35;;;;;;;16.33;11.50;;;;;;;;;;5054945;28;20041;-57
2023/03/09 02:13:07;;;;;;;21.10;12.55;;;;;;;;;;5055310;28;20093;-57
2023/03/09 02:15:34;;;;;;;22.58;13.02;;;;;;;;;;5054203;28;20043;-57
2023/03/09 02:18:00;;;;;;;21.80;12.82;;;;;;;;;;5054063;28;20087;-57
2023/03/09 02:20:33;;;;;;;22.13;12.10;;;;;;;;;;5054755;28;20134;-57
2023/03/09 02:22:59;;;;;;;21.35;13.05;;;;;;;;;;5054658;28;20136;-57
2023/03/09 02:25:35;;;;;;;20.17;12.88;;;;;;;;;;5055695;28;20123;-57
2023/03/09 02:28:03;;;;;;;19.60;12.10;;;;;;;;;;5055174;28;20045;-57
2023/03/09 02:30:31;;;;;;;21.02;11.77;;;;;;;;;;5055105;28;20115;-57
2023/03/09 02:33:04;;;;;;;20.80;13.07;;;;;;;;;;5054951;28;20044;-56
2023/03/09 02:35:30;;;;;;;20.50;12.68;;;;;;;;;;5069620;28;20044;-57
2023/03/09 02:37:56;;;;;;;22.80;13.45;;;;;;;;;;5055050;28;20048;-57
2023/03/09 02:40:28;;;;;;;21.85;13.38;;;;;;;;;;5053865;28;20040;-58
2023/03/09 02:42:54;;;;;;;22.42;14.73;;;;;;;;;;5054943;28;20052;-56
2023/03/09 02:45:21;;;;;;;22.98;13.57;;;;;;;;;;5054864;28;20053;-57
2023/03/09 02:47:47;;;;;;;23.50;13.15;;;;;;;;;;5054987;28;20041;-57
2023/03/09 02:50:14;;;;;;;24.00;14.50;;;0.20;99.90;;;;;;5054259;28;20051;-57
2023/03/09 02:52:40;;;;;;;22.75;13.38;;;;;;;;;;5053829;28;20037;-57
2023/03/09 02:55:07;;;;;;;25.75;14.18;;;;;;;;;;5053106;28;20786;-56
2023/03/09 02:57:33;;;;;;;22.85;13.55;;;;;;;;;;5054912;28;20047;-57
2023/03/09 02:59:59;;;;;;;25.05;13.73;;;;;;;;;;5053123;28;20386;-57
2023/03/09 03:02:26;;;;;;;21.58;12.32;;;;;;;;;;5052829;28;20473;-57
2023/03/09 03:04:52;;;;;;;23.58;14.02;;;;;;;;;;5052087;28;20064;-57
2023/03/09 03:07:18;;;;;;;22.33;14.27;;;;;;;;;;5054443;28;20139;-57
2023/03/09 03:09:44;;;;;;;21.75;13.80;;;;;;;;;;5053870;28;20040;-57
2023/03/09 03:12:10;;;;;;;23.15;14.50;;;;;;;;;;5053181;28;20044;-57
2023/03/09 03:14:37;;;;;;;22.33;13.93;;;;;;;;;;5054800;28;20049;-57
2023/03/09 03:17:03;;;;;;;22.65;14.50;;;;;;;;;;5054750;28;20044;-57
2023/03/09 03:19:29;;;;;;;21.98;13.18;;;;;;;;;;5052966;28;20182;-57
2023/03/09 03:21:55;;;;;;;25.40;13.75;;;;;;;;;;5053102;28;20475;-56
2023/03/09 03:24:21;;;;;;;22.38;13.32;;;;;;;;;;5054025;28;20046;-57
2023/03/09 03:26:47;;;;;;;27.05;13.90;;;;;;;;;;5053557;28;20387;-57
2023/03/09 03:29:13;;;;;;;22.98;13.35;;;;;;;;;;5052726;28;20397;-57
2023/03/09 03:31:39;;;;;;;25.73;13.23;;;;;;;;;;5052270;28;20083;-57
2023/03/09 03:34:05;;;;;;;31.00;15.70;;;;;;;;;;5053422;28;20041;-57
2023/03/09 03:36:31;;;;;;;23.52;14.65;;;;;;;;;;5053994;28;20055;-57
2023/03/09 03:38:58;;;;;;;24.58;15.23;;;;;;;;;;5053068;28;20132;-57
2023/03/09 03:41:24;;;;;;;28.63;16.13;;;;;;;;;;5052622;28;20043;-57
2023/03/09 03:43:50;;;;;;;27.58;13.60;;;;;;;;;;5054831;28;20047;-57
2023/03/09 03:46:16;;;;;;;26.20;15.50;;;;;;;;;;5053858;28;20064;-57
2023/03/09 03:48:42;;;;;;;25.60;15.90;;;;;;;;;;5052963;28;20040;-57
2023/03/09 03:51:08;;;;;;;29.58;15.30;;;;;;;;;;5053175;28;20032;-57
2023/03/09 03:53:34;;;;;;;29.67;15.23;;;;;;;;;;5053529;28;20414;-57
2023/03/09 03:56:02;;;;;;;25.73;14.07;;;;;;;;;;5054726;28;20098;-57
2023/03/09 03:58:29;;;;;;;29.58;15.57;;;;;;;;;;5053984;28;20524;-57
2023/03/09 04:00:55;;;;;;;25.92;13.82;;;;;;;;;;5052694;28;20102;-57
2023/03/09 04:03:21;;;;;;;25.35;13.98;;;;;;;;;;5053090;28;21084;-57
2023/03/09 04:05:47;;;;;;;31.33;15.65;;;;;;;;;;5054732;28;20127;-57
2023/03/09 04:08:13;;;;;;;29.88;16.17;;;;;;;;;;5053727;28;20049;-57
2023/03/09 04:10:40;;;;;;;25.63;15.30;;;;;;;;;;5053232;28;20041;-57
2023/03/09 04:13:06;;;;;;;28.48;17.13;;;;;;;;;;5054158;28;20049;-57
2023/03/09 04:15:33;;;;;;;28.15;15.73;;;;;;;;;;5050825;28;20044;-57
2023/03/09 04:17:59;;;;;;;31.83;16.75;;;;;;;;;;5053743;28;20061;-57
2023/03/09 04:20:25;;;;;;;33.58;18.13;;;;;;;;;;5052675;28;20041;-58
2023/03/09 04:22:51;;;;;;;28.35;16.80;;;;;;;;;;5051878;28;20044;-57
2023/03/09 04:25:17;;;;;;;29.73;17.25;;;;;;;;;;5052322;28;20037;-57
2023/03/09 04:27:43;;;;;;;31.73;17.75;;;;;;;;;;5052460;28;20139;-57
2023/03/09 04:30:10;;;;;;;27.30;15.55;;;;;;;;;;5051815;28;20033;-57
2023/03/09 04:32:36;;;;;;;28.40;16.17;;;;;;;;;;5051343;28;20727;-57
2023/03/09 04:35:02;;;;;;;31.63;16.95;;;;;;;;;;5052664;28;20081;-58
2023/03/09 04:37:28;;;;;;;30.92;16.52;;;;;;;;;;5053268;28;21003;-57
2023/03/09 04:39:54;;;;;;;30.08;17.15;;;;;;;;;;5052481;28;20045;-57
2023/03/09 04:42:21;;;;;;;31.73;17.83;;;;;;;;;;5051161;28;20467;-56
2023/03/09 04:44:47;;;;;;;52.42;28.23;;;;;;;;;;5051382;28;20094;-57
2023/03/09 04:47:13;;;;;;;38.88;21.75;;;;;;;;;;5052468;28;20927;-56
2023/03/09 04:49:40;;;;;;;32.90;18.92;;;-0.10;99.90;;;;;;5051945;28;20036;-57
2023/03/09 04:52:06;;;;;;;31.33;18.20;;;;;;;;;;5049893;28;20416;-57
2023/03/09 04:54:32;;;;;;;31.00;18.92;;;;;;;;;;5052032;28;20307;-58
2023/03/09 04:56:58;;;;;;;84.00;50.58;;;;;;;;;;5051726;28;20040;-58
2023/03/09 04:59:24;;;;;;;52.55;32.17;;;;;;;;;;5051667;28;20575;-58
2023/03/09 05:01:51;;;;;;;39.20;23.58;;;;;;;;;;5053076;28;20086;-58
2023/03/09 05:04:17;;;;;;;35.88;22.73;;;;;;;;;;5053298;28;20050;-58
2023/03/09 05:06:44;;;;;;;38.65;24.60;;;;;;;;;;5052467;28;20502;-57
2023/03/09 05:09:10;;;;;;;35.30;21.88;;;;;;;;;;5052155;28;20045;-58
2023/03/09 05:11:37;;;;;;;38.85;22.27;;;;;;;;;;5052652;28;20133;-58
2023/03/09 05:14:03;;;;;;;33.10;19.30;;;;;;;;;;5058940;28;20139;-58
2023/03/09 05:16:29;;;;;;;34.72;21.13;;;;;;;;;;5056186;28;20044;-57
2023/03/09 05:18:55;;;;;;;31.98;18.95;;;;;;;;;;5055827;28;20400;-58
2023/03/09 05:21:21;;;;;;;31.63;16.95;;;;;;;;;;5057090;28;20414;-58
2023/03/09 05:23:47;;;;;;;33.33;18.48;;;;;;;;;;5056340;28;20131;-57
2023/03/09 05:26:14;;;;;;;33.83;20.05;;;;;;;;;;5056657;28;20044;-58
2023/03/09 05:28:40;;;;;;;34.15;19.55;;;;;;;;;;5056059;28;20136;-58
2023/03/09 05:31:11;;;;;;;33.67;19.08;;;0.40;99.90;;;;;;5056632;28;20189;-58
2023/03/09 05:33:37;;;;;;;31.15;17.67;;;;;;;;;;5055614;28;20037;-57
2023/03/09 05:36:04;;;;;;;33.55;18.98;;;;;;;;;;5056090;28;20075;-58
2023/03/09 05:38:30;;;;;;;26.90;15.43;;;;;;;;;;5054993;28;20127;-58
2023/03/09 05:40:56;;;;;;;31.90;18.25;;;;;;;;;;5054866;28;20049;-59
2023/03/09 05:43:22;;;;;;;32.42;19.25;;;;;;;;;;5055585;28;20068;-59
2023/03/09 05:45:57;;;;;;;30.52;18.95;;;;;;;;;;5055733;28;20048;-59
2023/03/09 05:48:23;;;;;;;33.15;18.27;;;;;;;;;;5055135;28;20076;-59
2023/03/09 05:50:49;;;;;;;29.95;16.90;;;;;;;;;;5055568;28;20324;-58
2023/03/09 05:53:16;;;;;;;30.92;17.17;;;;;;;;;;5053994;28;20052;-59
2023/03/09 05:55:42;;;;;;;29.38;17.27;;;;;;;;;;5055009;28;20052;-59
2023/03/09 05:58:08;;;;;;;28.23;15.73;;;;;;;;;;5054583;28;20036;-59
2023/03/09 06:00:34;;;;;;;33.15;19.00;;;;;;;;;;5054593;28;20056;-59
2023/03/09 06:03:00;;;;;;;31.40;18.27;;;;;;;;;;5054871;28;20584;-58
2023/03/09 06:05:26;;;;;;;29.55;18.33;;;;;;;;;;5054276;28;20499;-57
2023/03/09 06:07:52;;;;;;;32.30;18.33;;;;;;;;;;5054483;28;20083;-59
2023/03/09 06:10:18;;;;;;;32.80;16.20;;;;;;;;;;5053648;28;20177;-58
2023/03/09 06:12:44;;;;;;;31.17;15.57;;;;;;;;;;5055125;28;20408;-58
2023/03/09 06:15:10;;;;;;;27.42;15.43;;;0.40;99.90;;;;;;5054636;28;20040;-59
2023/03/09 06:17:36;;;;;;;35.38;17.83;;;;;;;;;;5054460;28;20383;-58
2023/03/09 06:20:03;;;;;;;27.95;17.05;;;;;;;;;;5054734;28;20405;-61
2023/03/09 06:22:30;;;;;;;31.95;17.95;;;;;;;;;;5055396;28;20059;-60
2023/03/09 06:24:56;;;;;;;28.40;16.13;;;;;;;;;;5053769;28;20055;-58
2023/03/09 06:27:22;;;;;;;27.85;17.15;;;;;;;;;;5053772;28;20053;-61
2023/03/09 06:29:48;;;;;;;30.88;18.00;;;;;;;;;;5054461;28;20071;-58
2023/03/09 06:32:14;;;;;;;29.30;17.10;;;;;;;;;;5056621;28;20048;-57
2023/03/09 06:34:40;;;;;;;32.08;17.73;;;;;;;;;;5053298;28;20059;-57
2023/03/09 06:37:06;;;;;;;24.70;14.15;;;;;;;;;;5054857;28;20048;-57
2023/03/09 06:39:32;;;;;;;27.92;16.95;;;;;;;;;;5054825;28;20410;-57
2023/03/09 06:41:58;;;;;;;26.38;16.27;;;;;;;;;;5055860;28;20150;-57
2023/03/09 06:44:25;;;;;;;30.42;16.98;;;;;;;;;;5054584;28;20044;-57
2023/03/09 06:46:51;;;;;;;27.95;17.30;;;;;;;;;;5055590;28;20048;-57
2023/03/09 06:49:17;;;;;;;25.00;16.30;;;;;;;;;;5053675;28;20040;-57
2023/03/09 06:51:44;;;;;;;28.20;16.73;;;;;;;;;;5053729;28;20040;-56
2023/03/09 06:54:10;;;;;;;28.00;15.65;;;;;;;;;;5055415;28;20043;-57
2023/03/09 06:56:36;;;;;;;31.27;17.02;;;;;;;;;;5054428;28;20044;-57
2023/03/09 06:59:02;;;;;;;25.92;16.60;;;;;;;;;;5053564;28;20154;-57
2023/03/09 07:01:28;;;;;;;24.45;15.95;;;;;;;;;;5054413;28;20036;-57
2023/03/09 07:03:54;;;;;;;26.80;17.52;;;;;;;;;;5052856;28;20036;-57
2023/03/09 07:06:20;;;;;;;26.40;15.43;;;;;;;;;;5055410;28;20513;-57
2023/03/09 07:08:46;;;;;;;27.30;16.30;;;;;;;;;;5053813;28;20052;-57
2023/03/09 07:11:12;;;;;;;27.95;17.15;;;;;;;;;;5054119;28;20075;-57
2023/03/09 07:13:39;;;;;;;30.30;17.60;;;;;;;;;;5054771;28;20043;-57
2023/03/09 07:16:05;;;;;;;25.17;15.73;;;2.00;99.90;;;;;;5055699;28;20517;-57
2023/03/09 07:18:31;;;;;;;25.38;16.70;;;;;;;;;;5052899;28;20044;-57
2023/03/09 07:21:02;;;;;;;22.23;15.15;;;2.60;99.90;;;;;;5053400;28;20037;-57
2023/03/09 07:23:29;;;;;;;18.42;13.27;;;2.50;99.90;;;;;;5053594;28;20051;-58
2023/03/09 07:26:02;;;;;;;20.90;14.48;;;2.60;99.90;;;;;;5053967;28;20163;-57
2023/03/09 07:28:28;;;;;;;23.23;13.40;;;;;;;;;;5052325;28;20275;-58
2023/03/09 07:30:54;;;;;;;22.55;13.35;;;;;;;;;;5053794;28;20051;-57
2023/03/09 07:33:20;;;;;;;20.60;12.48;;;;;;;;;;5052957;28;20063;-59
2023/03/09 07:35:46;;;;;;;19.88;12.73;;;;;;;;;;5052269;28;20068;-59
2023/03/09 07:38:12;;;;;;;20.50;11.90;;;;;;;;;;5053754;28;20047;-59
2023/03/09 07:40:39;;;;;;;21.52;12.10;;;;;;;;;;5054217;28;20143;-59
2023/03/09 07:43:06;;;;;;;19.08;12.38;;;;;;;;;;5053191;28;20044;-59
2023/03/09 07:45:32;;;;;;;21.30;12.23;;;;;;;;;;5054109;28;20041;-59
2023/03/09 07:47:58;;;;;;;18.85;11.02;;;;;;;;;;5053031;28;20463;-59
2023/03/09 07:50:24;;;;;;;17.92;10.90;;;;;;;;;;5054767;28;20465;-59
2023/03/09 07:52:50;;;;;;;19.75;11.85;;;;;;;;;;5052634;28;20504;-59
2023/03/09 07:55:16;;;;;;;16.90;10.88;;;4.20;99.90;;;;;;5052829;28;20553;-59
2023/03/09 07:57:43;;;;;;;18.13;12.77;;;;;;;;;;5053945;28;20132;-59
2023/03/09 08:00:13;;;;;;;17.30;11.15;;;4.10;99.90;;;;;;5053357;28;20181;-57
2023/03/09 08:02:42;;;;;;;18.75;11.80;;;4.20;99.90;;;;;;5053320;28;20040;-56
2023/03/09 08:05:09;;;;;;;17.30;11.63;;;4.00;99.90;;;;;;5052277;28;20836;-57
2023/03/09 08:07:35;;;;;;;16.63;11.40;;;;;;;;;;5051535;28;20451;-56
2023/03/09 08:10:02;;;;;;;15.35;11.63;;;;;;;;;;5053985;28;20048;-57
2023/03/09 08:12:28;;;;;;;14.73;9.95;;;;;;;;;;5054034;28;20044;-57
2023/03/09 08:14:54;;;;;;;13.63;9.35;;;;;;;;;;5054808;28;20049;-57
2023/03/09 08:17:20;;;;;;;15.95;10.25;;;;;;;;;;5053864;28;20127;-57
2023/03/09 08:19:46;;;;;;;14.57;10.02;;;;;;;;;;5052560;28;20063;-56
2023/03/09 08:22:12;;;;;;;15.77;10.55;;;;;;;;;;5053455;28;20043;-57
2023/03/09 08:24:38;;;;;;;18.35;10.73;;;;;;;;;;5054748;28;20179;-57
2023/03/09 08:27:04;;;;;;;13.50;8.10;;;;;;;;;;5053485;28;20041;-57
2023/03/09 08:29:30;;;;;;;14.90;9.05;;;;;;;;;;5052808;28;20420;-57
2023/03/09 08:31:56;;;;;;;15.95;9.98;;;;;;;;;;5052379;28;20117;-56
2023/03/09 08:34:23;;;;;;;15.38;10.52;;;;;;;;;;5053493;28;20750;-57
2023/03/09 08:36:49;;;;;;;16.02;10.40;;;;;;;;;;5053345;28;20040;-57
2023/03/09 08:39:15;;;;;;;17.42;9.88;;;;;;;;;;5053646;28;20097;-57
2023/03/09 08:41:41;;;;;;;15.90;10.73;;;;;;;;;;5053804;28;20501;-57
2023/03/09 08:44:07;;;;;;;14.70;9.15;;;;;;;;;;5053679;28;20041;-57
2023/03/09 08:46:33;;;;;;;16.02;9.75;;;;;;;;;;5053834;28;20501;-56
2023/03/09 08:49:00;;;;;;;15.75;10.60;;;;;;;;;;5055257;28;20036;-57
2023/03/09 08:51:28;;;;;;;15.93;9.75;;;;;;;;;;5057590;28;20044;-57
2023/03/09 08:53:55;;;;;;;13.88;9.73;;;4.10;99.90;;;;;;5056156;28;20409;-57
2023/03/09 08:56:21;;;;;;;13.63;7.82;;;;;;;;;;5057386;28;20032;-57
2023/03/09 08:58:47;;;;;;;13.32;9.35;;;;;;;;;;5056760;28;20033;-57
2023/03/09 09:01:13;;;;;;;11.07;8.48;;;;;;;;;;5055417;28;20044;-56
2023/03/09 09:03:40;;;;;;;12.70;8.70;;;;;;;;;;5055440;28;20048;-57
2023/03/09 09:06:12;;;;;;;13.38;8.68;;;5.70;99.90;;;;;;5057007;28;20048;-57
2023/03/09 09:08:38;;;;;;;;;;;6.50;99.90;;;;;;5057229;28;20040;-57
2023/03/09 09:11:09;;;;;;;14.80;8.65;;;6.00;99.90;;;;;;5057514;28;20517;-57
2023/03/09 09:13:39;;;;;;;12.75;8.18;;;;;;;;;;5055994;28;20036;-57
2023/03/09 09:16:06;;;;;;;12.02;8.25;;;5.40;99.90;;;;;;5058064;28;20044;-57
2023/03/09 09:18:32;;;;;;;10.85;7.85;;;5.30;99.90;;;;;;5055968;28;20452;-57
2023/03/09 09:20:59;;;;;;;12.43;7.75;;;;;;;;;;5056740;28;20074;-56
2023/03/09 09:23:25;;;;;;;10.38;7.45;;;;;;;;;;5056484;28;20063;-57
2023/03/09 09:25:55;;;;;;;13.05;7.18;;;5.40;99.90;;;;;;5057081;28;20808;-56
2023/03/09 09:28:22;;;;;;;10.70;6.78;;;;;;;;;;5056996;28;20126;-57
2023/03/09 09:30:59;;;;;;;9.02;5.80;;;5.40;99.90;;;;;;5056260;28;20044;-57
2023/03/09 09:33:28;;;;;;;9.15;6.93;;;5.20;99.90;;;;;;5056317;28;20527;-56
2023/03/09 09:35:59;;;;;;;10.82;6.63;;;4.90;99.90;;;;;;5056661;28;20044;-56
2023/03/09 09:38:27;;;;;;;8.40;5.75;;;4.70;99.90;;;;;;5057103;28;20036;-56
2023/03/09 09:40:58;;;;;;;11.63;6.65;;;4.50;99.90;;;;;;5058472;28;20195;-57
2023/03/09 09:43:24;;;;;;;9.27;6.57;;;;;;;;;;5057452;28;20044;-57
2023/03/09 09:45:54;;;;;;;9.68;6.80;;;5.10;99.90;;;;;;5057946;28;20097;-57
2023/03/09 09:48:22;;;;;;;11.73;7.22;;;;;;;;;;5056091;28;20041;-57
2023/03/09 09:51:14;;;;;;;9.30;6.38;;;4.80;99.90;;;;;;5055944;28;20048;-57
2023/03/09 09:54:03;;;;;;;10.02;6.38;;;4.90;99.90;;;;;;5045611;28;20454;-57
2023/03/09 09:56:44;;;;;;;11.38;7.50;;;6.50;99.90;;;;;;5057926;28;20400;-57
2023/03/09 09:59:29;;;;;;;10.43;7.28;;;4.80;99.90;;;;;;5054819;28;20119;-57
2023/03/09 10:02:16;;;;;;;9.82;6.50;;;4.40;99.90;;;;;;5056094;28;20032;-57
2023/03/09 10:05:03;;;;;;;9.75;6.68;;;4.40;99.90;;;;;;5055577;28;20059;-57
2023/03/09 10:07:29;;;;;;;9.90;7.25;;;;;;;;;;5055993;28;20079;-57
2023/03/09 10:10:01;;;;;;;10.73;7.55;;;4.00;99.90;;;;;;5056550;28;20051;-56
2023/03/09 10:12:27;;;;;;;10.85;7.53;;;;;;;;;;5055778;28;20113;-57
2023/03/09 10:15:04;;;;;;;10.02;6.80;;;4.00;99.90;;;;;;5056711;28;20048;-57
2023/03/09 10:17:30;;;;;;;10.90;6.63;;;;;;;;;;5055859;28;20044;-57
2023/03/09 10:19:59;;;;;;;9.50;6.57;;;4.20;99.90;;;;;;5054599;28;20052;-56
2023/03/09 10:22:26;;;;;;;12.05;7.15;;;4.30;99.90;;;;;;5055940;28;20048;-57
2023/03/09 10:24:54;;;;;;;10.82;6.15;;;4.50;99.90;;;;;;5052496;28;20545;-57
2023/03/09 10:27:31;;;;;;;9.20;5.57;;;4.60;99.90;;;;;;5057059;28;20834;-56
2023/03/09 10:30:06;;;;;;;9.15;5.10;;;4.90;99.90;;;;;;5054569;28;20520;-56
2023/03/09 10:32:32;;;;;;;9.05;5.95;;;;;;;;;;5055507;28;20414;-57
2023/03/09 10:35:20;;;;;;;9.73;5.70;;;4.90;99.90;;;;;;5053545;28;20047;-56
2023/03/09 10:37:50;;;;;;;7.80;4.82;;;4.70;99.90;;;;;;5054692;28;20139;-56
2023/03/09 10:40:29;;;;;;;8.15;5.40;;;4.70;99.90;;;;;;5054863;28;20038;-57
2023/03/09 10:42:58;;;;;;;7.88;5.07;;;4.70;99.90;;;;;;5053348;28;20409;-56
2023/03/09 10:45:30;;;;;;;8.13;5.50;;;4.70;99.90;;;;;;5056192;28;20044;-57
2023/03/09 10:48:06;;;;;;;9.45;5.45;;;4.80;99.90;;;;;;5054110;28;20076;-56
2023/03/09 10:50:35;;;;;;;11.65;6.47;;;4.90;99.90;;;;;;5054986;28;20036;-57
2023/03/09 10:53:29;;;;;;;9.82;6.05;;;5.20;99.90;;;;;;5055349;28;20045;-56
2023/03/09 10:56:16;;;;;;;8.73;5.88;;;5.40;99.90;;;;;;5052579;28;20546;-60
2023/03/09 10:58:43;;;;;;;9.70;6.47;;;;;;;;;;5054991;28;20048;-57
2023/03/09 11:01:11;;;;;;;9.35;5.60;;;5.50;99.90;;;;;;5054138;28;20822;-56
2023/03/09 11:03:39;;;;;;;8.05;5.50;;;5.30;99.90;;;;;;5054832;28;20040;-57
2023/03/09 11:06:23;;;;;;;9.52;6.03;;;5.20;99.90;;;;;;5054674;28;20075;-57
2023/03/09 11:09:18;;;;;;;9.05;5.70;;;5.00;99.90;;;;;;5054348;28;20402;-56
2023/03/09 11:11:46;;;;;;;9.32;5.75;;;5.00;99.90;;;;;;5031389;28;20448;-56
2023/03/09 11:14:29;;;;;;;7.38;4.88;;;4.90;99.90;;;;;;5054745;28;20083;-57
2023/03/09 11:17:00;;;;;;;7.63;5.00;;;4.80;99.90;;;;;;5053787;28;20052;-57
2023/03/09 11:19:27;;;;;;;10.27;5.68;;;4.80;99.90;;;;;;5054541;28;20501;-57
2023/03/09 11:21:56;;;;;;;8.93;5.82;;;4.90;99.90;;;;;;5054756;28;20597;-56
2023/03/09 11:24:26;;;;;;;9.63;6.20;;;4.90;99.90;;;;;;5054960;28;20036;-57
2023/03/09 11:27:05;;;;;;;9.43;5.43;;;4.80;99.90;;;;;;5054754;28;20918;-56
2023/03/09 11:30:02;;;;;;;8.93;6.15;;;4.80;99.90;;;;;;5053541;28;20118;-57
2023/03/09 11:32:28;;;;;;;8.30;5.38;;;;;;;;;;5032251;28;20147;-56
2023/03/09 11:34:54;;;;;;;9.43;6.15;;;;;;;;;;5052537;28;20408;-56
2023/03/09 11:37:40;;;;;;;8.15;5.43;;;4.80;99.90;;;;;;5054198;28;20044;-56
2023/03/09 11:40:12;;;;;;;9.80;5.75;;;4.90;99.90;;;;;;5054204;28;20051;-56
2023/03/09 11:42:50;;;;;;;;;;;4.70;99.90;;;;;;5053475;28;20040;-56
2023/03/09 11:45:29;;;;;;;7.88;5.32;;;5.10;99.90;;;;;;5054801;28;19938;-56
2023/03/09 11:48:13;;;;;;;8.32;5.47;;;5.00;99.90;;;;;;5053122;28;20037;-57
2023/03/09 11:50:53;;;;;;;8.77;4.50;;;4.80;99.90;;;;;;5054097;28;20071;-56
2023/03/09 11:53:31;;;;;;;7.90;4.70;;;5.10;99.90;;;;;;5052986;28;20128;-56
2023/03/09 11:56:24;;;;;;;7.15;4.70;;;4.70;99.90;;;;;;5053200;28;20446;-56
2023/03/09 11:59:34;;;;;;;7.60;5.25;;;4.90;99.90;;;;;;5052871;28;20040;-56
2023/03/09 12:02:30;;;;;;;9.05;5.97;;;4.90;99.90;;;;;;5014938;28;20500;-56
2023/03/09 12:04:56;;;;;;;7.63;4.60;;;;;;;;;;5052751;28;20048;-57
2023/03/09 12:07:23;;;;;;;7.35;4.93;;;;;;;;;;5053186;28;21263;-56
2023/03/09 12:10:22;;;;;;;8.95;5.90;;;5.00;99.90;;;;;;5053403;28;20041;-56
2023/03/09 12:13:16;;;;;;;8.63;5.60;;;5.30;99.90;;;;;;5053402;28;20043;-56
2023/03/09 12:15:59;;;;;;;7.63;4.95;;;5.00;99.90;;;;;;5052250;28;20048;-55
2023/03/09 12:18:30;;;;;;;9.35;4.90;;;5.10;99.90;;;;;;5053640;28;20036;-56
2023/03/09 12:21:08;;;;;;;11.05;5.32;;;5.10;99.90;;;;;;5053902;28;20105;-56
2023/03/09 12:23:37;;;;;;;10.23;5.38;;;5.10;99.90;;;;;;5056529;28;20064;-57
2023/03/09 12:26:03;;;;;;;7.95;5.38;;;;;;;;;;5058315;28;20056;-56
2023/03/09 12:28:29;;;;;;;7.47;5.18;;;4.90;99.90;;;;;;5057504;28;20492;-56
2023/03/09 12:30:57;;;;;;;10.85;5.95;;;4.60;99.90;;;;;;5056250;28;20045;-56
2023/03/09 12:33:41;;;;;;;10.00;5.70;;;4.60;99.90;;;;;;5057366;28;20044;-56
2023/03/09 12:36:26;;;;;;;8.63;6.30;;;4.60;99.90;;;;;;5057416;28;20809;-56
2023/03/09 12:39:33;;;;;;;10.02;5.15;;;4.40;99.90;;;;;;5058282;28;20101;-56
2023/03/09 12:42:03;;;;;;;7.78;4.97;;;4.60;99.90;;;;;;4976880;28;20133;-57
2023/03/09 12:44:56;;;;;;;8.60;5.05;;;4.60;99.90;;;;;;5047545;28;20109;-57
2023/03/09 12:47:37;;;;;;;9.73;5.97;;;4.30;99.90;;;;;;5057827;28;20074;-57
2023/03/09 12:50:21;;;;;;;9.48;5.88;;;4.40;99.90;;;;;;5057094;28;20052;-56
2023/03/09 12:53:02;;;;;;;9.63;6.22;;;4.50;99.90;;;;;;5057118;28;20044;-56
2023/03/09 12:55:40;;;;;;;8.45;5.75;;;4.50;99.90;;;;;;5056614;28;20044;-56
2023/03/09 12:58:17;;;;;;;9.13;6.03;;;4.50;99.90;;;;;;5056159;28;20538;-57
2023/03/09 13:01:08;;;;;;;9.27;5.53;;;4.20;99.90;;;;;;5056898;28;20047;-56
2023/03/09 13:04:00;;;;;;;8.65;6.13;;;4.40;99.90;;;;;;5056487;28;20143;-57
2023/03/09 13:06:42;;;;;;;10.50;7.00;;;4.60;99.90;;;;;;5056466;28;20059;-57
2023/03/09 13:09:09;;;;;;;8.15;5.90;;;;;;;;;;5056167;28;20087;-56
2023/03/09 13:11:39;;;;;;;8.32;5.55;;;4.40;99.90;;;;;;5055785;28;20036;-57
2023/03/09 13:14:35;;;;;;;8.43;5.45;;;3.90;99.90;;;;;;5056395;28;20201;-57
2023/03/09 13:17:22;;;;;;;9.38;4.72;;;4.30;99.90;;;;;;5056186;28;20036;-57
2023/03/09 13:19:54;;;;;;;8.07;5.43;;;4.30;99.90;;;;;;5054424;28;20129;-56
2023/03/09 13:22:23;;;;;;;9.55;5.88;;;4.20;99.90;;;;;;5056154;28;20043;-55
2023/03/09 13:24:54;;;;;;;8.40;5.18;;;4.00;99.90;;;;;;5055597;28;20399;-56
2023/03/09 13:27:30;;;;;;;10.25;5.82;;;4.00;99.90;;;;;;5055777;28;20655;-56
2023/03/09 13:30:16;;;;;;;9.00;5.78;;;2.30;99.90;;;;;;5056948;28;20033;-56
2023/03/09 13:32:53;;;;;;;8.32;5.45;;;4.00;99.90;;;;;;5055133;28;20548;-56
2023/03/09 13:35:21;;;;;;;7.88;5.68;;;4.00;99.90;;;;;;5057244;28;20147;-56
2023/03/09 13:37:51;;;;;;;8.82;6.00;;;3.90;99.90;;;;;;5057079;28;20120;-56
2023/03/09 13:40:24;;;;;;;8.60;5.65;;;4.00;99.90;;;;;;5058132;28;20036;-56
2023/03/09 13:42:51;;;;;;;9.80;5.75;;;5.30;99.90;;;;;;5056377;28;20071;-56
2023/03/09 13:45:19;;;;;;;9.23;6.00;;;3.70;99.90;;;;;;5057843;28;20294;-56
2023/03/09 13:47:46;;;;;;;9.43;6.50;;;;;;;;;;5056769;28;20101;-56
2023/03/09 13:50:17;;;;;;;10.02;6.45;;;3.80;99.90;;;;;;5055315;28;20047;-56
2023/03/09 13:52:59;;;;;;;9.30;6.25;;;4.00;99.90;;;;;;5055887;28;20094;-56
2023/03/09 13:55:27;;;;;;;8.75;6.28;;;;;;;;;;5056042;28;20074;-56
2023/03/09 13:57:54;;;;;;;9.13;6.53;;;3.80;99.90;;;;;;5056556;28;20408;-56
2023/03/09 14:00:26;;;;;;;8.57;6.43;;;3.90;99.90;;;;;;5057045;28;20139;-56